Hovedside
METAR-TAF:

METAR-TAF

Lufthavner :

Seinäjoki lufthavn

Seinäjoki-Ilmajoki, Finland

breddegrad: 62-41-37N, lengdegrad: 022-49-55E, høyde over havet: 91 m

Gjeldene værobservasjon

Denne rapporten ble laget for 16 minutter siden, klokken 20:50 UTC
Vind 4 kt fra Sør, skiftende mellom Sør-sørøst og Sørvest
Temperatur 10°C
Luftfuktighet 57%
Trykk 1025 hPa
Skyfri himmel

METAR: EFSI 232050Z AUTO 18004KT 160V220 //// SKC 10/02 Q1025

Tid: 00:06 (21:06 UTC)


TAF: fraværende

Værobservasjoner og værvarsel for over 4000 flyplasser (METAR- og TAF-rapporter).

Tilgjengelige stasjoner er representert av de røde og gule prikkene på kartet.

Hold musepekeren over prikken for å se navnet på stasjonen.

Klikk så for å se værobservasjoner og -varsler.

For å forandre kartet kan du klikke på den grønne knappen med svart kryss for å zoome inn, på den grønne knappen med strek for å zoome ut, eller på de grønne pilene for å se tilstøtende kart.


METAR-TAF: